sensor_id;sensor_type;location;lat;lon;timestamp;pressure;altitude;pressure_sealevel;temperature;humidity
12913;BME280;6524;51.368;11.984;2023-04-21T04:04:24;100386.94;;;5.14;73.09
12913;BME280;6524;51.368;11.984;2023-04-21T04:09:25;100390.63;;;5.31;72.55
12913;BME280;6524;51.368;11.984;2023-04-21T04:14:25;100394.16;;;5.30;72.51
12913;BME280;6524;51.368;11.984;2023-04-21T04:19:32;100393.88;;;5.36;72.30
12913;BME280;6524;51.368;11.984;2023-04-21T04:24:32;100387.97;;;5.51;71.47
12913;BME280;6524;51.368;11.984;2023-04-21T04:29:33;100380.13;;;5.31;71.96
12913;BME280;6524;51.368;11.984;2023-04-21T04:34:34;100379.47;;;5.46;71.81
12913;BME280;6524;51.368;11.984;2023-04-21T04:39:36;100393.22;;;5.51;71.68
12913;BME280;6524;51.368;11.984;2023-04-21T04:44:37;100386.38;;;5.47;72.00
12913;BME280;6524;51.368;11.984;2023-04-21T04:49:37;100387.28;;;5.67;71.05
12913;BME280;6524;51.368;11.984;2023-04-21T04:54:38;100383.19;;;5.80;70.97
12913;BME280;6524;51.368;11.984;2023-04-21T04:59:38;100390.41;;;5.94;70.47
12913;BME280;6524;51.368;11.984;2023-04-21T05:04:39;100393.16;;;6.09;69.95
12913;BME280;6524;51.368;11.984;2023-04-21T05:09:39;100389.94;;;6.41;69.01
12913;BME280;6524;51.368;11.984;2023-04-21T05:14:39;100397.56;;;6.64;68.21
12913;BME280;6524;51.368;11.984;2023-04-21T05:19:40;100400.75;;;6.71;67.80
12913;BME280;6524;51.368;11.984;2023-04-21T05:24:40;100405.84;;;6.91;67.79
12913;BME280;6524;51.368;11.984;2023-04-21T05:29:41;100405.97;;;7.23;66.60
12913;BME280;6524;51.368;11.984;2023-04-21T05:34:42;100402.13;;;7.13;66.91
12913;BME280;6524;51.368;11.984;2023-04-21T05:39:42;100404.72;;;7.47;66.03
12913;BME280;6524;51.368;11.984;2023-04-21T05:44:43;100403.00;;;7.46;66.58
12913;BME280;6524;51.368;11.984;2023-04-21T05:49:43;100406.38;;;7.66;66.13
12913;BME280;6524;51.368;11.984;2023-04-21T05:54:49;100406.19;;;7.86;65.72
12913;BME280;6524;51.368;11.984;2023-04-21T05:59:49;100399.06;;;7.88;65.56
12913;BME280;6524;51.368;11.984;2023-04-21T06:04:50;100409.78;;;8.17;64.66
12913;BME280;6524;51.368;11.984;2023-04-21T06:09:50;100407.53;;;7.93;65.38
12913;BME280;6524;51.368;11.984;2023-04-21T06:14:51;100406.16;;;8.81;62.79
12913;BME280;6524;51.368;11.984;2023-04-21T06:19:51;100397.47;;;8.79;62.58
12913;BME280;6524;51.368;11.984;2023-04-21T06:24:55;100403.03;;;9.19;61.69
12913;BME280;6524;51.368;11.984;2023-04-21T06:29:55;100394.31;;;9.47;60.54
12913;BME280;6524;51.368;11.984;2023-04-21T06:34:55;100395.00;;;9.79;59.95
12913;BME280;6524;51.368;11.984;2023-04-21T06:39:56;100386.81;;;10.25;58.42
12913;BME280;6524;51.368;11.984;2023-04-21T06:44:56;100388.63;;;10.52;57.32
12913;BME280;6524;51.368;11.984;2023-04-21T06:49:57;100386.84;;;11.05;55.92
12913;BME280;6524;51.368;11.984;2023-04-21T06:54:57;100393.75;;;11.72;54.42
12913;BME280;6524;51.368;11.984;2023-04-21T06:59:57;100385.91;;;12.20;53.28
12913;BME280;6524;51.368;11.984;2023-04-21T07:04:58;100378.97;;;12.30;51.53
12913;BME280;6524;51.368;11.984;2023-04-21T07:09:58;100381.06;;;13.88;53.61
12913;BME280;6524;51.368;11.984;2023-04-21T07:14:58;100382.34;;;15.44;45.24
12913;BME280;6524;51.368;11.984;2023-04-21T07:19:59;100381.50;;;18.23;39.08
12913;BME280;6524;51.368;11.984;2023-04-21T07:24:59;100381.22;;;20.51;35.25
12913;BME280;6524;51.368;11.984;2023-04-21T07:30:00;100394.78;;;21.40;33.56
12913;BME280;6524;51.368;11.984;2023-04-21T07:35:00;100393.13;;;22.26;31.64
12913;BME280;6524;51.368;11.984;2023-04-21T07:40:01;100398.72;;;22.08;31.61
12913;BME280;6524;51.368;11.984;2023-04-21T07:45:02;100390.66;;;22.08;31.37
12913;BME280;6524;51.368;11.984;2023-04-21T07:50:03;100387.47;;;22.12;31.00
12913;BME280;6524;51.368;11.984;2023-04-21T07:55:03;100376.50;;;21.83;32.39
12913;BME280;6524;51.368;11.984;2023-04-21T08:00:04;100379.38;;;20.76;32.87
12913;BME280;6524;51.368;11.984;2023-04-21T08:05:05;100370.50;;;21.00;31.81
12913;BME280;6524;51.368;11.984;2023-04-21T08:10:06;100359.59;;;21.18;32.78
12913;BME280;6524;51.368;11.984;2023-04-21T08:15:07;100362.81;;;21.05;31.31
12913;BME280;6524;51.368;11.984;2023-04-21T08:20:08;100367.06;;;21.39;31.00
12913;BME280;6524;51.368;11.984;2023-04-21T08:25:11;100363.13;;;21.58;30.90
12913;BME280;6524;51.368;11.984;2023-04-21T08:30:11;100365.06;;;21.41;29.67
12913;BME280;6524;51.368;11.984;2023-04-21T08:35:12;100354.75;;;22.32;31.35
12913;BME280;6524;51.368;11.984;2023-04-21T08:40:12;100349.97;;;21.80;30.65
12913;BME280;6524;51.368;11.984;2023-04-21T08:45:13;100362.88;;;22.47;29.77
12913;BME280;6524;51.368;11.984;2023-04-21T08:50:13;100357.59;;;21.99;28.50
12913;BME280;6524;51.368;11.984;2023-04-21T08:55:14;100362.63;;;21.71;29.59
12913;BME280;6524;51.368;11.984;2023-04-21T09:00:15;100356.34;;;22.18;29.13
12913;BME280;6524;51.368;11.984;2023-04-21T09:05:21;100367.25;;;22.25;28.41
12913;BME280;6524;51.368;11.984;2023-04-21T09:10:22;100356.53;;;22.08;28.01
12913;BME280;6524;51.368;11.984;2023-04-21T09:15:24;100346.44;;;22.41;27.44
12913;BME280;6524;51.368;11.984;2023-04-21T09:20:24;100357.09;;;22.73;27.41
12913;BME280;6524;51.368;11.984;2023-04-21T09:25:25;100348.09;;;23.03;28.10
12913;BME280;6524;51.368;11.984;2023-04-21T09:30:26;100349.66;;;22.98;27.34
12913;BME280;6524;51.368;11.984;2023-04-21T09:35:28;100343.09;;;23.30;27.24
12913;BME280;6524;51.368;11.984;2023-04-21T09:40:29;100331.28;;;22.63;26.69
12913;BME280;6524;51.368;11.984;2023-04-21T09:45:31;100333.91;;;22.49;27.94
12913;BME280;6524;51.368;11.984;2023-04-21T09:50:32;100325.69;;;22.50;27.62
12913;BME280;6524;51.368;11.984;2023-04-21T09:55:33;100328.09;;;22.83;26.89
12913;BME280;6524;51.368;11.984;2023-04-21T10:00:34;100319.78;;;22.70;27.32
12913;BME280;6524;51.368;11.984;2023-04-21T10:05:38;100319.41;;;22.73;26.78
12913;BME280;6524;51.368;11.984;2023-04-21T10:10:39;100323.47;;;22.92;27.08
12913;BME280;6524;51.368;11.984;2023-04-21T10:15:40;100307.84;;;22.49;27.00
12913;BME280;6524;51.368;11.984;2023-04-21T10:26:00;100310.09;;;21.13;27.58
12913;BME280;6524;51.368;11.984;2023-04-21T10:31:25;100302.28;;;20.46;28.55
12913;BME280;6524;51.368;11.984;2023-04-21T10:36:28;100311.28;;;21.89;28.06
12913;BME280;6524;51.368;11.984;2023-04-21T10:41:30;100293.03;;;22.30;26.94
12913;BME280;6524;51.368;11.984;2023-04-21T10:46:31;100304.53;;;23.15;26.22
12913;BME280;6524;51.368;11.984;2023-04-21T10:56:59;100282.47;;;21.74;27.39
12913;BME280;6524;51.368;11.984;2023-04-21T11:02:04;100279.66;;;21.60;27.45
12913;BME280;6524;51.368;11.984;2023-04-21T11:07:22;100267.91;;;21.92;31.40
12913;BME280;6524;51.368;11.984;2023-04-21T11:12:26;100272.44;;;21.68;26.87
12913;BME280;6524;51.368;11.984;2023-04-21T11:17:28;100268.75;;;22.15;27.10
12913;BME280;6524;51.368;11.984;2023-04-21T11:22:28;100262.41;;;21.54;27.26
12913;BME280;6524;51.368;11.984;2023-04-21T11:27:29;100256.47;;;21.67;27.07
12913;BME280;6524;51.368;11.984;2023-04-21T11:32:30;100263.47;;;22.45;26.56
12913;BME280;6524;51.368;11.984;2023-04-21T11:37:30;100248.78;;;22.33;25.79
12913;BME280;6524;51.368;11.984;2023-04-21T11:42:31;100241.25;;;22.05;26.88
12913;BME280;6524;51.368;11.984;2023-04-21T11:47:31;100232.66;;;22.33;28.93
12913;BME280;6524;51.368;11.984;2023-04-21T11:52:33;100233.00;;;22.30;27.58
12913;BME280;6524;51.368;11.984;2023-04-21T11:57:38;100228.06;;;22.56;28.28
12913;BME280;6524;51.368;11.984;2023-04-21T12:02:39;100216.13;;;22.36;25.47
12913;BME280;6524;51.368;11.984;2023-04-21T12:07:44;100230.47;;;22.51;26.71
12913;BME280;6524;51.368;11.984;2023-04-21T12:12:44;100226.47;;;22.77;27.61
12913;BME280;6524;51.368;11.984;2023-04-21T12:17:47;100213.03;;;23.36;24.73
12913;BME280;6524;51.368;11.984;2023-04-21T12:22:48;100227.59;;;23.27;26.64
12913;BME280;6524;51.368;11.984;2023-04-21T12:27:50;100219.09;;;22.79;26.31
12913;BME280;6524;51.368;11.984;2023-04-21T12:32:51;100205.03;;;23.64;25.16
12913;BME280;6524;51.368;11.984;2023-04-21T12:37:53;100196.81;;;23.51;24.63
12913;BME280;6524;51.368;11.984;2023-04-21T12:42:54;100201.88;;;23.39;25.49
12913;BME280;6524;51.368;11.984;2023-04-21T12:47:54;100200.41;;;23.22;26.12
12913;BME280;6524;51.368;11.984;2023-04-21T12:52:55;100192.41;;;23.14;24.72
12913;BME280;6524;51.368;11.984;2023-04-21T12:57:55;100185.22;;;21.94;24.01
12913;BME280;6524;51.368;11.984;2023-04-21T13:02:56;100191.03;;;22.73;24.55
12913;BME280;6524;51.368;11.984;2023-04-21T13:07:56;100176.84;;;22.94;23.51
12913;BME280;6524;51.368;11.984;2023-04-21T13:12:56;100182.94;;;22.58;23.50
12913;BME280;6524;51.368;11.984;2023-04-21T13:17:57;100180.16;;;22.66;23.04
12913;BME280;6524;51.368;11.984;2023-04-21T13:22:58;100165.69;;;22.67;23.43
12913;BME280;6524;51.368;11.984;2023-04-21T13:27:58;100159.56;;;21.68;24.41
12913;BME280;6524;51.368;11.984;2023-04-21T13:32:59;100152.13;;;22.76;23.86
12913;BME280;6524;51.368;11.984;2023-04-21T13:37:59;100156.50;;;22.47;24.27
12913;BME280;6524;51.368;11.984;2023-04-21T13:43:01;100145.19;;;22.37;24.64
12913;BME280;6524;51.368;11.984;2023-04-21T13:48:02;100125.31;;;21.08;25.04
12913;BME280;6524;51.368;11.984;2023-04-21T13:53:03;100122.97;;;21.59;25.24
12913;BME280;6524;51.368;11.984;2023-04-21T13:58:03;100116.63;;;21.52;25.16
12913;BME280;6524;51.368;11.984;2023-04-21T14:03:04;100111.16;;;22.06;25.30
12913;BME280;6524;51.368;11.984;2023-04-21T14:08:05;100107.91;;;21.96;25.09
12913;BME280;6524;51.368;11.984;2023-04-21T14:13:06;100098.16;;;21.03;24.73
12913;BME280;6524;51.368;11.984;2023-04-21T14:18:06;100087.72;;;20.13;25.21
12913;BME280;6524;51.368;11.984;2023-04-21T14:23:07;100082.94;;;20.56;25.39
12913;BME280;6524;51.368;11.984;2023-04-21T14:28:07;100083.06;;;19.74;25.46
12913;BME280;6524;51.368;11.984;2023-04-21T14:33:10;100084.06;;;19.65;25.36
12913;BME280;6524;51.368;11.984;2023-04-21T14:38:11;100066.56;;;20.43;25.28
12913;BME280;6524;51.368;11.984;2023-04-21T14:43:11;100062.75;;;20.68;25.57
12913;BME280;6524;51.368;11.984;2023-04-21T14:48:11;100066.22;;;20.46;25.41
12913;BME280;6524;51.368;11.984;2023-04-21T14:53:13;100069.38;;;20.49;25.16
12913;BME280;6524;51.368;11.984;2023-04-21T14:58:13;100070.38;;;20.48;25.36
12913;BME280;6524;51.368;11.984;2023-04-21T15:03:14;100053.63;;;20.46;25.51
12913;BME280;6524;51.368;11.984;2023-04-21T15:08:14;100054.16;;;20.33;25.77
12913;BME280;6524;51.368;11.984;2023-04-21T15:13:17;100048.59;;;19.47;26.25
12913;BME280;6524;51.368;11.984;2023-04-21T15:18:17;100028.50;;;19.18;27.37
12913;BME280;6524;51.368;11.984;2023-04-21T15:23:18;100028.94;;;19.05;28.05
12913;BME280;6524;51.368;11.984;2023-04-21T15:28:18;100030.59;;;18.47;27.61
12913;BME280;6524;51.368;11.984;2023-04-21T15:33:19;100020.66;;;18.58;27.87
12913;BME280;6524;51.368;11.984;2023-04-21T15:38:19;100028.72;;;18.74;27.75
12913;BME280;6524;51.368;11.984;2023-04-21T15:43:20;100030.69;;;18.64;27.99
12913;BME280;6524;51.368;11.984;2023-04-21T15:48:20;100013.72;;;18.04;28.57
12913;BME280;6524;51.368;11.984;2023-04-21T15:53:21;100013.34;;;17.55;29.23
12913;BME280;6524;51.368;11.984;2023-04-21T15:58:21;100007.72;;;18.11;28.75
12913;BME280;6524;51.368;11.984;2023-04-21T16:03:22;100001.94;;;18.23;28.71
12913;BME280;6524;51.368;11.984;2023-04-21T16:08:22;100005.91;;;18.19;28.95
12913;BME280;6524;51.368;11.984;2023-04-21T16:13:23;100000.13;;;18.32;29.20
12913;BME280;6524;51.368;11.984;2023-04-21T16:18:23;100002.41;;;18.53;29.61
12913;BME280;6524;51.368;11.984;2023-04-21T16:23:25;99987.31;;;18.10;29.08
12913;BME280;6524;51.368;11.984;2023-04-21T16:28:26;99989.88;;;18.19;29.12
12913;BME280;6524;51.368;11.984;2023-04-21T16:33:26;99990.78;;;17.76;29.53
12913;BME280;6524;51.368;11.984;2023-04-21T16:38:27;99991.91;;;17.91;29.72
12913;BME280;6524;51.368;11.984;2023-04-21T16:43:27;99986.56;;;17.91;29.46
12913;BME280;6524;51.368;11.984;2023-04-21T16:48:27;99978.53;;;17.83;30.01
12913;BME280;6524;51.368;11.984;2023-04-21T16:53:28;99977.56;;;17.92;30.27
12913;BME280;6524;51.368;11.984;2023-04-21T16:58:28;99979.13;;;17.77;29.97
12913;BME280;6524;51.368;11.984;2023-04-21T17:03:29;99980.94;;;17.50;30.45
12913;BME280;6524;51.368;11.984;2023-04-21T17:08:29;99973.03;;;17.23;30.66
12913;BME280;6524;51.368;11.984;2023-04-21T17:13:30;99968.53;;;17.41;30.78
12913;BME280;6524;51.368;11.984;2023-04-21T17:24:11;99967.94;;;17.11;31.25
12913;BME280;6524;51.368;11.984;2023-04-21T17:29:12;99968.41;;;17.25;31.03
12913;BME280;6524;51.368;11.984;2023-04-21T17:34:12;99963.44;;;17.30;30.95
12913;BME280;6524;51.368;11.984;2023-04-21T17:39:13;99964.00;;;17.15;31.75
12913;BME280;6524;51.368;11.984;2023-04-21T17:44:14;99964.03;;;16.88;32.40
12913;BME280;6524;51.368;11.984;2023-04-21T17:49:14;99974.34;;;16.83;32.87
12913;BME280;6524;51.368;11.984;2023-04-21T18:00:37;99965.66;;;16.35;32.80
12913;BME280;6524;51.368;11.984;2023-04-21T18:05:38;99967.81;;;15.94;34.03
12913;BME280;6524;51.368;11.984;2023-04-21T18:10:39;99968.34;;;15.98;34.45
12913;BME280;6524;51.368;11.984;2023-04-21T18:15:39;99979.09;;;15.78;34.49
12913;BME280;6524;51.368;11.984;2023-04-21T18:20:40;99969.31;;;15.69;34.48
12913;BME280;6524;51.368;11.984;2023-04-21T18:25:41;99978.50;;;15.65;34.61
12913;BME280;6524;51.368;11.984;2023-04-21T18:30:41;99976.47;;;15.40;34.98
12913;BME280;6524;51.368;11.984;2023-04-21T18:35:42;99976.06;;;14.96;34.97
12913;BME280;6524;51.368;11.984;2023-04-21T18:40:42;99984.19;;;15.14;34.80
12913;BME280;6524;51.368;11.984;2023-04-21T18:45:42;99975.72;;;14.60;35.11
12913;BME280;6524;51.368;11.984;2023-04-21T18:50:43;99975.50;;;15.02;34.69
12913;BME280;6524;51.368;11.984;2023-04-21T18:55:43;99983.56;;;14.81;35.31
12913;BME280;6524;51.368;11.984;2023-04-21T19:00:44;99982.19;;;14.86;35.01
12913;BME280;6524;51.368;11.984;2023-04-21T19:05:45;99984.03;;;14.26;35.68
12913;BME280;6524;51.368;11.984;2023-04-21T19:10:46;99981.84;;;14.41;36.12
12913;BME280;6524;51.368;11.984;2023-04-21T19:15:46;99987.97;;;14.32;36.09
12913;BME280;6524;51.368;11.984;2023-04-21T19:20:47;99982.09;;;14.07;36.43
12913;BME280;6524;51.368;11.984;2023-04-21T19:25:47;99983.56;;;14.21;36.35
12913;BME280;6524;51.368;11.984;2023-04-21T19:30:53;99973.66;;;13.92;36.77
12913;BME280;6524;51.368;11.984;2023-04-21T19:35:54;99976.63;;;13.47;37.41
12913;BME280;6524;51.368;11.984;2023-04-21T19:40:55;99976.59;;;13.68;36.96
12913;BME280;6524;51.368;11.984;2023-04-21T19:45:56;99989.44;;;13.63;37.84
12913;BME280;6524;51.368;11.984;2023-04-21T19:50:57;99978.94;;;13.62;37.46
12913;BME280;6524;51.368;11.984;2023-04-21T19:55:59;99989.56;;;13.41;37.92
12913;BME280;6524;51.368;11.984;2023-04-21T20:00:59;99991.38;;;13.40;38.10
12913;BME280;6524;51.368;11.984;2023-04-21T20:05:59;99988.44;;;13.22;38.73
12913;BME280;6524;51.368;11.984;2023-04-21T20:11:00;99988.09;;;13.16;39.05
12913;BME280;6524;51.368;11.984;2023-04-21T20:16:01;99977.41;;;13.06;39.44
12913;BME280;6524;51.368;11.984;2023-04-21T20:21:01;99987.28;;;12.72;39.90
12913;BME280;6524;51.368;11.984;2023-04-21T20:26:02;99989.28;;;12.91;39.57
12913;BME280;6524;51.368;11.984;2023-04-21T20:31:02;99998.09;;;12.80;39.42
12913;BME280;6524;51.368;11.984;2023-04-21T20:36:03;99994.66;;;13.00;39.32
12913;BME280;6524;51.368;11.984;2023-04-21T20:41:06;99996.66;;;12.87;39.54
12913;BME280;6524;51.368;11.984;2023-04-21T20:46:08;100001.03;;;12.43;40.87
12913;BME280;6524;51.368;11.984;2023-04-21T20:51:08;99994.25;;;12.73;39.70
12913;BME280;6524;51.368;11.984;2023-04-21T20:56:09;99995.72;;;11.76;41.84
12913;BME280;6524;51.368;11.984;2023-04-21T21:01:09;99995.97;;;12.18;41.31
12913;BME280;6524;51.368;11.984;2023-04-21T21:06:10;99995.97;;;12.18;41.07
12913;BME280;6524;51.368;11.984;2023-04-21T21:11:12;99992.97;;;12.11;41.62
12913;BME280;6524;51.368;11.984;2023-04-21T21:16:12;100004.41;;;12.23;41.49
12913;BME280;6524;51.368;11.984;2023-04-21T21:21:12;100002.00;;;12.08;41.52
12913;BME280;6524;51.368;11.984;2023-04-21T21:26:13;100016.06;;;11.75;42.39
12913;BME280;6524;51.368;11.984;2023-04-21T21:31:13;100017.13;;;11.73;42.81
12913;BME280;6524;51.368;11.984;2023-04-21T21:36:14;100012.22;;;11.44;43.33
12913;BME280;6524;51.368;11.984;2023-04-21T21:41:14;100017.41;;;11.81;42.36
12913;BME280;6524;51.368;11.984;2023-04-21T21:46:16;100025.88;;;11.62;43.15
12913;BME280;6524;51.368;11.984;2023-04-21T21:51:17;100020.66;;;11.49;43.19
12913;BME280;6524;51.368;11.984;2023-04-21T21:56:19;100021.66;;;11.59;43.49
12913;BME280;6524;51.368;11.984;2023-04-21T22:01:20;100022.44;;;11.49;43.68
12913;BME280;6524;51.368;11.984;2023-04-21T22:06:20;100021.91;;;11.32;44.19
12913;BME280;6524;51.368;11.984;2023-04-21T22:11:21;100026.84;;;10.78;44.78
12913;BME280;6524;51.368;11.984;2023-04-21T22:16:22;100026.66;;;11.40;43.84
12913;BME280;6524;51.368;11.984;2023-04-21T22:21:22;100027.06;;;10.75;45.46
12913;BME280;6524;51.368;11.984;2023-04-21T22:26:26;100023.78;;;10.58;45.87
12913;BME280;6524;51.368;11.984;2023-04-21T22:31:26;100021.16;;;10.95;45.03
12913;BME280;6524;51.368;11.984;2023-04-21T22:36:27;100025.19;;;10.88;45.13
12913;BME280;6524;51.368;11.984;2023-04-21T22:41:27;100022.34;;;10.41;46.39
12913;BME280;6524;51.368;11.984;2023-04-21T22:46:28;100028.25;;;10.45;46.72
12913;BME280;6524;51.368;11.984;2023-04-21T22:51:31;100021.34;;;10.18;46.75
12913;BME280;6524;51.368;11.984;2023-04-21T22:56:32;100025.34;;;9.98;47.25
12913;BME280;6524;51.368;11.984;2023-04-21T23:01:32;100024.47;;;10.49;46.36
12913;BME280;6524;51.368;11.984;2023-04-21T23:06:32;100016.78;;;10.20;46.44
12913;BME280;6524;51.368;11.984;2023-04-21T23:11:33;100014.78;;;10.24;47.03
12913;BME280;6524;51.368;11.984;2023-04-21T23:16:33;100006.78;;;10.00;47.15
12913;BME280;6524;51.368;11.984;2023-04-21T23:21:34;100007.06;;;9.57;48.17
12913;BME280;6524;51.368;11.984;2023-04-21T23:26:34;99988.31;;;10.13;46.63
12913;BME280;6524;51.368;11.984;2023-04-21T23:31:35;100007.19;;;10.19;46.95
12913;BME280;6524;51.368;11.984;2023-04-21T23:36:35;100014.13;;;10.20;46.86
12913;BME280;6524;51.368;11.984;2023-04-21T23:41:36;100006.16;;;10.09;46.94
12913;BME280;6524;51.368;11.984;2023-04-21T23:47:14;100003.63;;;9.82;47.56
12913;BME280;6524;51.368;11.984;2023-04-21T23:52:39;99998.22;;;9.71;48.10
12913;BME280;6524;51.368;11.984;2023-04-21T23:57:41;100001.69;;;9.46;48.53
